createdAt,value
2018-09-27T00:00:52.601Z,10.51
2018-09-27T00:03:20.768Z,10.56
2018-09-27T00:05:48.939Z,10.60
2018-09-27T00:08:16.903Z,10.95
2018-09-27T00:10:44.977Z,10.83
2018-09-27T00:13:13.244Z,10.81
2018-09-27T00:15:41.756Z,10.66
2018-09-27T00:18:09.563Z,10.70
2018-09-27T00:20:37.660Z,10.66
2018-09-27T00:23:05.944Z,10.74
2018-09-27T00:25:33.987Z,10.83
2018-09-27T00:28:01.883Z,10.60
2018-09-27T00:30:30.052Z,10.57
2018-09-27T00:32:58.220Z,10.50
2018-09-27T00:35:26.395Z,10.43
2018-09-27T00:37:54.418Z,10.63
2018-09-27T00:40:22.536Z,10.30
2018-09-27T00:42:50.241Z,10.60
2018-09-27T00:45:18.471Z,10.52
2018-09-27T00:47:46.644Z,10.43
2018-09-27T00:50:14.813Z,10.49
2018-09-27T00:52:42.999Z,10.42
2018-09-27T00:55:11.499Z,10.44
2018-09-27T00:57:39.208Z,10.42
2018-09-27T01:00:07.823Z,10.47
2018-09-27T01:02:35.537Z,10.58
2018-09-27T01:05:03.856Z,10.50
2018-09-27T01:07:32.027Z,10.60
2018-09-27T01:10:00.060Z,10.38
2018-09-27T01:12:28.170Z,10.49
2018-09-27T01:14:56.288Z,10.56
2018-09-27T01:17:24.007Z,10.49
2018-09-27T01:19:52.175Z,10.62
2018-09-27T01:22:20.347Z,10.49
2018-09-27T01:24:48.527Z,10.47
2018-09-27T01:27:16.631Z,10.31
2018-09-27T01:29:44.759Z,10.45
2018-09-27T01:32:12.889Z,10.48
2018-09-27T01:34:41.112Z,10.62
2018-09-27T01:37:09.286Z,10.60
2018-09-27T01:39:37.452Z,10.38
2018-09-27T01:42:05.631Z,10.27
2018-09-27T01:44:33.804Z,10.48
2018-09-27T01:47:02.002Z,10.71
2018-09-27T01:49:30.246Z,10.35
2018-09-27T01:51:58.428Z,10.37
2018-09-27T01:54:26.388Z,10.39
2018-09-27T01:56:54.083Z,10.53
2018-09-27T01:59:22.431Z,10.46
2018-09-27T02:01:50.595Z,10.71
2018-09-27T02:04:18.586Z,10.66
2018-09-27T02:06:46.792Z,10.62
2018-09-27T02:09:14.920Z,10.40
2018-09-27T02:11:43.083Z,10.32
2018-09-27T02:14:11.267Z,10.48
2018-09-27T02:16:39.643Z,10.45
2018-09-27T02:19:07.817Z,10.38
2018-09-27T02:21:35.983Z,10.50
2018-09-27T02:24:04.139Z,10.75
2018-09-27T02:26:32.127Z,10.74
2018-09-27T02:29:00.299Z,10.59
2018-09-27T02:31:28.568Z,10.64
2018-09-27T02:33:56.863Z,10.50
2018-09-27T02:36:25.021Z,10.46
2018-09-27T02:38:53.300Z,10.61
2018-09-27T02:41:21.567Z,10.57
2018-09-27T02:43:49.748Z,10.45
2018-09-27T02:46:17.812Z,10.41
2018-09-27T02:48:45.784Z,10.59
2018-09-27T02:51:13.952Z,10.48
2018-09-27T02:53:42.131Z,10.45
2018-09-27T02:56:10.296Z,10.31
2018-09-27T02:58:38.167Z,10.31
2018-09-27T03:01:06.344Z,10.42
2018-09-27T03:03:34.516Z,10.45
2018-09-27T03:06:02.792Z,10.29
2018-09-27T03:08:30.860Z,10.25
2018-09-27T03:10:59.031Z,10.43
2018-09-27T03:13:27.230Z,10.44
2018-09-27T03:15:55.276Z,10.34
2018-09-27T03:18:23.452Z,10.26
2018-09-27T03:20:51.531Z,9.99
2018-09-27T03:23:19.691Z,10.23
2018-09-27T03:25:47.859Z,10.38
2018-09-27T03:28:16.040Z,10.23
2018-09-27T03:30:43.740Z,10.08
2018-09-27T03:33:11.871Z,10.32
2018-09-27T03:35:40.044Z,10.25
2018-09-27T03:38:07.744Z,9.93
2018-09-27T03:40:35.969Z,9.96
2018-09-27T03:43:03.952Z,10.18
2018-09-27T03:45:32.016Z,10.12
2018-09-27T03:48:00.097Z,10.10
2018-09-27T03:50:28.259Z,10.23
2018-09-27T03:52:56.335Z,10.15
2018-09-27T03:55:24.510Z,10.14
2018-09-27T03:57:52.684Z,10.00
2018-09-27T04:00:20.852Z,10.21
2018-09-27T04:02:49.245Z,10.26
2018-09-27T04:05:17.304Z,10.12
2018-09-27T04:07:45.469Z,10.45
2018-09-27T04:10:13.539Z,10.18
2018-09-27T04:12:41.267Z,10.01
2018-09-27T04:15:09.372Z,10.18
2018-09-27T04:17:37.447Z,10.19
2018-09-27T04:20:05.828Z,10.19
2018-09-27T04:22:33.999Z,9.90
2018-09-27T04:25:02.175Z,10.09
2018-09-27T04:27:30.356Z,9.89
2018-09-27T04:29:58.096Z,10.13
2018-09-27T04:32:26.389Z,10.18
2018-09-27T04:34:54.447Z,9.98
2018-09-27T04:37:22.427Z,9.99
2018-09-27T04:39:50.608Z,9.92
2018-09-27T04:42:18.652Z,10.11
2018-09-27T04:44:46.844Z,10.06
2018-09-27T04:47:14.908Z,9.98
2018-09-27T04:49:43.084Z,9.86
2018-09-27T04:52:11.251Z,9.75
2018-09-27T04:54:39.324Z,9.99
2018-09-27T04:57:07.500Z,10.19
2018-09-27T04:59:35.568Z,10.38
2018-09-27T05:02:03.295Z,10.18
2018-09-27T05:04:31.404Z,10.23
2018-09-27T05:06:59.571Z,10.44
2018-09-27T05:09:27.780Z,10.23
2018-09-27T05:11:55.911Z,10.39
2018-09-27T05:14:23.626Z,10.51
2018-09-27T05:16:51.807Z,10.46
2018-09-27T05:19:19.823Z,10.80
2018-09-27T05:21:48.001Z,10.76
2018-09-27T05:24:16.216Z,11.05
2018-09-27T05:26:44.492Z,10.71
2018-09-27T05:29:12.624Z,10.63
2018-09-27T05:31:40.889Z,10.71
2018-09-27T05:34:09.068Z,10.83
2018-09-27T05:36:37.243Z,10.98
2018-09-27T05:39:06.700Z,11.10
2018-09-27T05:41:34.714Z,11.03
2018-09-27T05:44:02.876Z,11.08
2018-09-27T05:46:30.959Z,11.11
2018-09-27T05:48:59.351Z,11.05
2018-09-27T05:51:27.497Z,11.25
2018-09-27T05:53:55.467Z,11.37
2018-09-27T05:56:23.544Z,11.32
2018-09-27T05:58:51.707Z,11.20
2018-09-27T06:01:19.995Z,11.23
2018-09-27T06:03:48.063Z,11.47
2018-09-27T06:06:16.235Z,11.62
2018-09-27T06:08:44.403Z,11.41
2018-09-27T06:11:12.582Z,11.62
2018-09-27T06:13:40.680Z,11.69
2018-09-27T06:16:08.720Z,11.89
2018-09-27T06:18:37.171Z,11.74
2018-09-27T06:21:05.466Z,12.05
2018-09-27T06:23:33.400Z,12.13
2018-09-27T06:26:01.356Z,12.10
2018-09-27T06:28:29.479Z,12.12
2018-09-27T06:30:57.659Z,12.06
2018-09-27T06:33:25.415Z,12.22
2018-09-27T06:35:53.473Z,12.15
2018-09-27T06:38:21.653Z,12.25
2018-09-27T06:40:49.359Z,12.45
2018-09-27T06:43:17.496Z,12.47
2018-09-27T06:45:45.558Z,12.48
2018-09-27T06:48:13.604Z,12.59
2018-09-27T06:50:41.814Z,12.64
2018-09-27T06:53:09.890Z,12.60
2018-09-27T06:55:38.111Z,12.73
2018-09-27T06:58:06.329Z,12.74
2018-09-27T07:00:34.599Z,12.80
2018-09-27T07:03:02.680Z,12.73
2018-09-27T07:05:30.774Z,12.84
2018-09-27T07:07:59.251Z,12.74
2018-09-27T07:10:27.432Z,13.07
2018-09-27T07:12:55.673Z,12.78
2018-09-27T07:15:24.680Z,12.88
2018-09-27T07:17:56.013Z,13.10
2018-09-27T07:20:24.729Z,13.23
2018-09-27T07:22:52.774Z,13.43
2018-09-27T07:25:21.139Z,13.48
2018-09-27T07:27:49.106Z,13.28
2018-09-27T07:30:17.278Z,13.59
2018-09-27T07:32:45.561Z,13.54
2018-09-27T07:35:13.777Z,13.70
2018-09-27T07:37:41.665Z,13.77
2018-09-27T07:40:09.865Z,13.83
2018-09-27T07:42:38.083Z,13.90
2018-09-27T07:45:06.335Z,14.04
2018-09-27T07:47:34.191Z,14.16
2018-09-27T07:50:02.400Z,14.17
2018-09-27T07:52:30.544Z,14.25
2018-09-27T07:54:58.268Z,14.33
2018-09-27T07:57:26.180Z,14.17
2018-09-27T07:59:54.439Z,14.42
2018-09-27T08:02:22.653Z,14.38
2018-09-27T08:04:50.788Z,14.52
2018-09-27T08:07:19.062Z,14.56
2018-09-27T08:09:47.244Z,14.44
2018-09-27T08:12:15.503Z,14.63
2018-09-27T08:14:43.800Z,14.70
2018-09-27T08:17:11.909Z,14.78
2018-09-27T08:19:39.763Z,14.83
2018-09-27T08:22:07.494Z,14.73
2018-09-27T08:24:35.238Z,14.59
2018-09-27T08:27:02.960Z,14.82
2018-09-27T08:29:30.654Z,14.75
2018-09-27T08:31:58.379Z,14.72
2018-09-27T08:34:26.092Z,14.97
2018-09-27T08:36:54.231Z,14.98
2018-09-27T08:39:22.325Z,15.17
2018-09-27T08:41:50.200Z,15.14
2018-09-27T08:44:17.935Z,15.18
2018-09-27T08:46:45.658Z,15.16
2018-09-27T08:49:13.390Z,15.12
2018-09-27T08:51:41.619Z,15.23
2018-09-27T08:54:09.625Z,15.46
2018-09-27T08:56:38.419Z,15.36
2018-09-27T08:59:06.818Z,15.56
2018-09-27T09:01:34.702Z,15.71
2018-09-27T09:04:02.974Z,15.65
2018-09-27T09:06:31.123Z,15.77
2018-09-27T09:08:59.439Z,15.82
2018-09-27T09:11:29.115Z,15.69
2018-09-27T09:13:57.151Z,15.79
2018-09-27T09:16:25.322Z,15.89
2018-09-27T09:18:53.612Z,15.73
2018-09-27T09:21:21.864Z,15.89
2018-09-27T09:23:50.054Z,15.91
2018-09-27T09:26:18.273Z,15.95
2018-09-27T09:28:46.020Z,16.02
2018-09-27T09:31:13.914Z,16.20
2018-09-27T09:33:41.677Z,16.22
2018-09-27T09:36:09.398Z,16.01
2018-09-27T09:38:37.139Z,16.06
2018-09-27T09:41:04.886Z,16.24
2018-09-27T09:43:32.628Z,16.16
2018-09-27T09:46:00.840Z,16.27
2018-09-27T09:48:28.946Z,16.36
2018-09-27T09:50:57.096Z,16.31
2018-09-27T09:53:25.253Z,16.48
2018-09-27T09:55:53.440Z,16.40
2018-09-27T09:58:21.607Z,16.45
2018-09-27T10:00:49.793Z,16.50
2018-09-27T10:03:17.964Z,16.67
2018-09-27T10:05:45.826Z,16.56
2018-09-27T10:08:14.086Z,16.60
2018-09-27T10:10:42.259Z,16.79
2018-09-27T10:13:10.431Z,17.02
2018-09-27T10:15:38.721Z,17.02
2018-09-27T10:18:06.599Z,16.99
2018-09-27T10:20:34.758Z,16.94
2018-09-27T10:23:02.928Z,16.96
2018-09-27T10:25:31.098Z,17.11
2018-09-27T10:27:59.087Z,17.24
2018-09-27T10:30:27.248Z,17.23
2018-09-27T10:32:55.333Z,17.18
2018-09-27T10:35:23.613Z,17.18
2018-09-27T10:37:51.356Z,17.28
2018-09-27T10:40:19.073Z,17.38
2018-09-27T10:42:47.114Z,17.34
2018-09-27T10:45:14.851Z,17.43
2018-09-27T10:47:42.790Z,17.39
2018-09-27T10:50:10.658Z,17.38
2018-09-27T10:52:38.747Z,17.38
2018-09-27T10:55:07.125Z,17.43
2018-09-27T10:57:35.306Z,17.49
2018-09-27T11:00:03.583Z,17.16
2018-09-27T11:02:31.637Z,16.94
2018-09-27T11:04:59.921Z,17.16
2018-09-27T11:07:37.340Z,17.29
2018-09-27T11:10:12.918Z,17.55
2018-09-27T11:12:48.255Z,17.68
2018-09-27T11:15:20.646Z,17.72
2018-09-27T11:17:53.591Z,17.59
2018-09-27T11:20:33.901Z,17.41
2018-09-27T11:23:02.225Z,17.48
2018-09-27T11:25:30.379Z,17.48
2018-09-27T11:27:58.978Z,17.56
2018-09-27T11:30:31.167Z,17.62
2018-09-27T11:32:59.973Z,17.70
2018-09-27T11:35:28.010Z,17.81
2018-09-27T11:37:56.006Z,17.91
2018-09-27T11:40:24.457Z,17.91
2018-09-27T11:42:52.775Z,17.86
2018-09-27T11:45:20.863Z,17.75
2018-09-27T11:47:48.974Z,17.69
2018-09-27T11:50:16.771Z,17.74
2018-09-27T11:52:44.871Z,17.69
2018-09-27T11:55:13.106Z,17.71
2018-09-27T11:57:41.202Z,17.63
2018-09-27T12:00:09.354Z,17.66
2018-09-27T12:02:43.806Z,17.74
2018-09-27T12:05:17.580Z,18.02
2018-09-27T12:07:51.373Z,17.96
2018-09-27T12:10:25.728Z,17.91
2018-09-27T12:13:00.822Z,17.84
2018-09-27T12:15:34.981Z,18.00
2018-09-27T12:18:09.299Z,17.98
2018-09-27T12:20:43.626Z,18.03
2018-09-27T12:23:18.134Z,17.84
2018-09-27T12:25:52.419Z,17.94
2018-09-27T12:28:26.915Z,18.03
2018-09-27T12:31:03.160Z,18.00
2018-09-27T12:33:46.472Z,18.14
2018-09-27T12:36:14.694Z,18.09
2018-09-27T12:38:42.789Z,18.02
2018-09-27T12:41:10.874Z,18.06
2018-09-27T12:43:39.015Z,18.23
2018-09-27T12:46:07.720Z,18.12
2018-09-27T12:48:35.464Z,18.09
2018-09-27T12:51:03.266Z,18.15
2018-09-27T12:53:31.230Z,18.15
2018-09-27T12:56:02.160Z,18.19
2018-09-27T12:58:35.809Z,18.27
2018-09-27T13:01:07.927Z,18.37
2018-09-27T13:03:37.331Z,18.22
2018-09-27T13:06:05.534Z,18.23
2018-09-27T13:08:33.590Z,18.25
2018-09-27T13:11:01.866Z,18.31
2018-09-27T13:13:30.051Z,18.11
2018-09-27T13:15:58.159Z,18.21
2018-09-27T13:18:26.268Z,18.31
2018-09-27T13:20:53.999Z,18.38
2018-09-27T13:23:22.106Z,18.41
2018-09-27T13:28:52.791Z,18.36
2018-09-27T13:31:20.587Z,18.40
2018-09-27T13:33:48.529Z,18.39
2018-09-27T13:36:16.328Z,18.39
2018-09-27T13:38:44.266Z,18.36
2018-09-27T13:41:12.030Z,18.30
2018-09-27T13:43:39.738Z,18.37
2018-09-27T13:46:07.594Z,18.44
2018-09-27T13:48:35.406Z,18.42
2018-09-27T13:51:03.226Z,18.44
2018-09-27T13:53:30.937Z,18.35
2018-09-27T13:55:58.671Z,18.36
2018-09-27T13:58:26.390Z,18.38
2018-09-27T14:00:54.203Z,18.33
2018-09-27T14:03:21.960Z,18.31
2018-09-27T14:05:49.699Z,18.30
2018-09-27T14:08:17.479Z,18.37
2018-09-27T14:10:45.219Z,18.35
2018-09-27T14:13:12.930Z,18.21
2018-09-27T14:15:40.674Z,18.39
2018-09-27T14:18:08.613Z,18.17
2018-09-27T14:20:36.630Z,18.24
2018-09-27T14:23:04.422Z,18.17
2018-09-27T14:25:32.181Z,18.31
2018-09-27T14:27:59.895Z,18.37
2018-09-27T14:30:27.697Z,18.36
2018-09-27T14:32:55.449Z,18.24
2018-09-27T14:35:23.218Z,18.19
2018-09-27T14:37:50.970Z,18.42
2018-09-27T14:40:18.689Z,18.27
2018-09-27T14:42:46.510Z,18.27
2018-09-27T14:45:14.214Z,18.29
2018-09-27T14:47:42.074Z,18.34
2018-09-27T14:50:09.804Z,18.30
2018-09-27T14:52:37.490Z,18.32
2018-09-27T14:55:05.332Z,18.33
2018-09-27T14:57:33.003Z,18.06
2018-09-27T15:00:00.693Z,18.26
2018-09-27T15:07:46.704Z,18.27
2018-09-27T15:10:14.755Z,18.34
2018-09-27T15:12:42.797Z,18.26
2018-09-27T15:15:10.849Z,18.39
2018-09-27T15:17:39.089Z,18.34
2018-09-27T15:20:07.276Z,18.38
2018-09-27T15:22:35.355Z,18.34
2018-09-27T15:25:03.346Z,18.33
2018-09-27T15:27:31.300Z,18.29
2018-09-27T15:29:59.264Z,18.16
2018-09-27T15:32:27.185Z,18.11
2018-09-27T15:34:55.244Z,18.20
2018-09-27T15:37:23.195Z,18.26
2018-09-27T15:39:51.184Z,18.17
2018-09-27T15:42:19.144Z,17.81
2018-09-27T15:44:47.132Z,17.65
2018-09-27T15:47:15.077Z,17.58
2018-09-27T15:49:43.045Z,17.51
2018-09-27T15:52:10.981Z,17.30
2018-09-27T15:54:38.915Z,17.37
2018-09-27T15:57:06.964Z,17.28
2018-09-27T15:59:35.019Z,17.15
2018-09-27T16:02:03.072Z,17.01
2018-09-27T16:04:31.009Z,17.03
2018-09-27T16:06:58.949Z,16.95
2018-09-27T16:09:26.896Z,17.10
2018-09-27T16:11:54.860Z,16.77
2018-09-27T16:14:23.693Z,16.67
2018-09-27T16:16:51.646Z,16.27
2018-09-27T16:19:19.585Z,16.43
2018-09-27T16:21:47.603Z,16.42
2018-09-27T16:24:15.557Z,16.31
2018-09-27T16:26:43.561Z,16.24
2018-09-27T16:29:11.669Z,15.95
2018-09-27T16:31:39.649Z,15.97
2018-09-27T16:34:07.740Z,15.98
2018-09-27T16:36:35.933Z,16.04
2018-09-27T16:39:05.477Z,16.09
2018-09-27T16:41:33.538Z,15.90
2018-09-27T16:44:01.478Z,16.13
2018-09-27T16:46:29.480Z,15.91
2018-09-27T16:48:57.445Z,15.83
2018-09-27T16:51:25.421Z,15.83
2018-09-27T16:53:53.493Z,15.66
2018-09-27T16:56:21.533Z,15.61
2018-09-27T16:58:49.477Z,15.62
2018-09-27T17:01:17.416Z,15.34
2018-09-27T17:03:45.874Z,15.53
2018-09-27T17:06:13.818Z,15.74
2018-09-27T17:08:41.753Z,15.49
2018-09-27T17:11:09.809Z,15.50
2018-09-27T17:13:37.816Z,15.19
2018-09-27T17:16:05.773Z,15.11
2018-09-27T17:18:33.785Z,15.14
2018-09-27T17:21:01.752Z,15.12
2018-09-27T17:23:29.766Z,15.05
2018-09-27T17:25:57.784Z,14.94
2018-09-27T17:28:25.740Z,15.10
2018-09-27T17:30:53.699Z,15.00
2018-09-27T17:33:21.630Z,14.84
2018-09-27T17:35:49.574Z,14.67
2018-09-27T17:38:17.842Z,14.81
2018-09-27T17:40:46.615Z,14.54
2018-09-27T17:43:14.623Z,14.68
2018-09-27T17:45:42.566Z,14.82
2018-09-27T17:48:10.504Z,14.46
2018-09-27T17:50:38.478Z,14.36
2018-09-27T17:53:06.515Z,14.35
2018-09-27T17:55:34.582Z,14.29
2018-09-27T17:58:02.599Z,14.09
2018-09-27T18:00:30.572Z,14.33
2018-09-27T18:02:58.507Z,14.13
2018-09-27T18:05:26.371Z,14.06
2018-09-27T18:07:54.193Z,13.96
2018-09-27T18:10:23.498Z,13.73
2018-09-27T18:12:51.315Z,13.41
2018-09-27T18:15:19.075Z,14.09
2018-09-27T18:17:46.916Z,13.84
2018-09-27T18:20:14.671Z,13.74
2018-09-27T18:22:42.467Z,13.59
2018-09-27T18:25:10.226Z,13.26
2018-09-27T18:27:38.013Z,13.50
2018-09-27T18:30:05.843Z,13.40
2018-09-27T18:32:33.561Z,13.23
2018-09-27T18:35:01.267Z,13.23
2018-09-27T18:37:29.518Z,13.02
2018-09-27T18:39:57.263Z,13.03
2018-09-27T18:42:24.970Z,12.85
2018-09-27T18:44:52.689Z,12.80
2018-09-27T18:47:20.547Z,12.83
2018-09-27T18:49:48.274Z,13.11
2018-09-27T18:52:16.344Z,13.47
2018-09-27T18:54:44.070Z,13.05
2018-09-27T18:57:11.914Z,12.92
2018-09-27T18:59:39.666Z,12.83
2018-09-27T19:02:07.576Z,12.90
2018-09-27T19:04:35.289Z,12.52
2018-09-27T19:07:03.181Z,12.48
2018-09-27T19:09:30.938Z,12.51
2018-09-27T19:11:58.675Z,12.53
2018-09-27T19:14:26.479Z,12.49
2018-09-27T19:16:54.315Z,12.32
2018-09-27T19:19:21.950Z,12.21
2018-09-27T19:21:50.046Z,12.23
2018-09-27T19:24:17.750Z,12.19
2018-09-27T19:26:45.498Z,12.22
2018-09-27T19:29:13.546Z,12.11
2018-09-27T19:31:41.274Z,12.40
2018-09-27T19:34:10.036Z,12.02
2018-09-27T19:36:37.874Z,11.86
2018-09-27T19:39:07.482Z,11.92
2018-09-27T19:41:35.241Z,12.13
2018-09-27T19:44:02.997Z,12.10
2018-09-27T19:46:30.712Z,11.87
2018-09-27T19:48:58.457Z,12.21
2018-09-27T19:51:26.190Z,12.22
2018-09-27T19:53:53.987Z,11.68
2018-09-27T19:56:21.754Z,11.50
2018-09-27T19:58:49.457Z,11.51
2018-09-27T20:01:17.223Z,11.59
2018-09-27T20:03:44.983Z,11.49
2018-09-27T20:06:12.753Z,11.80
2018-09-27T20:08:40.563Z,11.94
2018-09-27T20:11:08.330Z,11.56
2018-09-27T20:13:36.389Z,11.58
2018-09-27T20:16:04.236Z,11.50
2018-09-27T20:18:31.946Z,11.53
2018-09-27T20:20:59.658Z,11.62
2018-09-27T20:23:27.381Z,11.65
2018-09-27T20:25:55.141Z,11.55
2018-09-27T20:28:22.893Z,11.15
2018-09-27T20:30:50.825Z,11.26
2018-09-27T20:33:18.599Z,11.00
2018-09-27T20:35:46.309Z,11.01
2018-09-27T20:38:14.034Z,11.10
2018-09-27T20:40:41.766Z,11.26
2018-09-27T20:43:09.543Z,11.38
2018-09-27T20:45:37.452Z,10.81
2018-09-27T20:48:05.347Z,10.80
2018-09-27T20:50:33.306Z,10.78
2018-09-27T20:53:01.023Z,10.90
2018-09-27T20:55:28.794Z,10.94
2018-09-27T20:57:56.610Z,11.02
2018-09-27T21:00:24.318Z,11.14
2018-09-27T21:02:52.042Z,10.81
2018-09-27T21:05:19.759Z,10.94
2018-09-27T21:07:47.450Z,11.14
2018-09-27T21:10:16.084Z,10.89
2018-09-27T21:12:43.765Z,10.62
2018-09-27T21:15:11.441Z,10.93
2018-09-27T21:17:42.142Z,11.21
2018-09-27T21:20:09.874Z,10.83
2018-09-27T21:22:37.564Z,10.57
2018-09-27T21:25:05.278Z,10.20
2018-09-27T21:27:33.010Z,10.54
2018-09-27T21:30:00.691Z,10.17
2018-09-27T21:32:28.377Z,10.06
2018-09-27T21:34:56.072Z,10.17
2018-09-27T21:37:23.790Z,10.16
2018-09-27T21:39:51.470Z,10.16
2018-09-27T21:42:19.154Z,10.09
2018-09-27T21:44:46.875Z,10.42
2018-09-27T21:47:14.584Z,10.18
2018-09-27T21:49:42.359Z,10.19
2018-09-27T21:52:10.226Z,10.04
2018-09-27T21:54:37.902Z,9.77
2018-09-27T21:57:05.627Z,10.00
2018-09-27T21:59:33.342Z,10.31
2018-09-27T22:02:01.039Z,10.33
2018-09-27T22:04:28.730Z,10.15
2018-09-27T22:06:56.405Z,10.12
2018-09-27T22:09:24.089Z,9.78
2018-09-27T22:11:51.774Z,9.79
2018-09-27T22:14:19.450Z,9.72
2018-09-27T22:16:47.541Z,9.84
2018-09-27T22:19:15.226Z,9.69
2018-09-27T22:21:42.902Z,9.75
2018-09-27T22:24:10.599Z,9.57
2018-09-27T22:26:38.286Z,9.78
2018-09-27T22:29:06.090Z,9.92
2018-09-27T22:31:33.786Z,9.71
2018-09-27T22:34:01.560Z,9.42
2018-09-27T22:36:29.256Z,9.23
2018-09-27T22:38:56.927Z,9.52
2018-09-27T22:41:24.974Z,9.41
2018-09-27T22:43:52.661Z,9.39
2018-09-27T22:46:20.365Z,9.35
2018-09-27T22:48:48.044Z,9.44
2018-09-27T22:51:15.755Z,9.13
2018-09-27T22:53:43.430Z,9.32
2018-09-27T22:56:11.118Z,9.12
2018-09-27T22:58:38.834Z,9.09
2018-09-27T23:01:06.550Z,9.01
2018-09-27T23:03:34.228Z,9.29
2018-09-27T23:06:01.933Z,9.09
2018-09-27T23:08:29.755Z,9.41
2018-09-27T23:10:57.824Z,9.14
2018-09-27T23:13:25.541Z,8.80
2018-09-27T23:15:53.297Z,8.96
2018-09-27T23:18:21.010Z,9.21
2018-09-27T23:20:48.706Z,9.07
2018-09-27T23:23:16.381Z,9.15
2018-09-27T23:25:44.109Z,8.94
2018-09-27T23:28:12.102Z,9.04
2018-09-27T23:30:39.819Z,9.20
2018-09-27T23:33:07.658Z,9.04
2018-09-27T23:35:35.365Z,8.92
2018-09-27T23:38:03.093Z,8.77
2018-09-27T23:40:30.795Z,8.89
2018-09-27T23:42:58.489Z,8.90
2018-09-27T23:45:26.524Z,8.68
2018-09-27T23:47:54.217Z,8.58
2018-09-27T23:50:22.229Z,8.91
2018-09-27T23:52:49.950Z,8.81
2018-09-27T23:55:17.653Z,8.85
2018-09-27T23:57:45.393Z,8.90
